createdAt,value
2023-10-13T00:02:56.072Z,101555.00
2023-10-13T00:06:21.538Z,101547.00
2023-10-13T00:09:02.831Z,101556.00
2023-10-13T00:11:40.378Z,101559.00
2023-10-13T00:14:35.786Z,101557.00
2023-10-13T00:17:33.649Z,101548.00
2023-10-13T00:20:42.758Z,101541.00
2023-10-13T00:23:16.017Z,101537.00
2023-10-13T00:32:00.723Z,101536.00
2023-10-13T00:37:50.016Z,101547.00
2023-10-13T00:41:09.288Z,101544.00
2023-10-13T00:44:13.616Z,101548.00
2023-10-13T01:04:58.578Z,101523.00
2023-10-13T01:15:09.560Z,101526.00
2023-10-13T01:16:39.575Z,101531.00
2023-10-13T01:19:20.563Z,101521.00
2023-10-13T01:22:00.563Z,101527.00
2023-10-13T01:24:55.550Z,101528.00
2023-10-13T01:37:24.695Z,101511.00
2023-10-13T01:45:31.409Z,101498.00
2023-10-13T01:48:40.399Z,101499.00
2023-10-13T01:51:02.811Z,101497.00
2023-10-13T02:13:34.414Z,101465.00
2023-10-13T02:18:58.798Z,101458.00
2023-10-13T02:21:47.889Z,101457.00
2023-10-13T02:40:43.822Z,101447.00
2023-10-13T02:43:10.941Z,101449.00
2023-10-13T02:48:59.700Z,101463.00
2023-10-13T02:51:55.460Z,101453.00
2023-10-13T03:01:06.966Z,101449.00
2023-10-13T03:13:01.778Z,101454.00
2023-10-13T03:15:38.424Z,101451.00
2023-10-13T03:18:29.509Z,101446.00
2023-10-13T03:24:16.037Z,101442.00
2023-10-13T03:26:56.318Z,101448.00
2023-10-13T03:29:39.595Z,101444.00
2023-10-13T03:33:02.562Z,101450.00
2023-10-13T03:38:38.600Z,101443.00
2023-10-13T03:47:35.440Z,101453.00
2023-10-13T03:50:27.016Z,101441.00
2023-10-13T04:02:21.337Z,101458.00
2023-10-13T04:05:00.658Z,101459.00
2023-10-13T04:08:07.780Z,101456.00
2023-10-13T04:11:01.111Z,101456.00
2023-10-13T04:13:54.195Z,101451.00
2023-10-13T04:16:32.162Z,101453.00
2023-10-13T04:19:22.268Z,101459.00
2023-10-13T04:21:51.368Z,101453.00
2023-10-13T04:24:32.108Z,101444.00
2023-10-13T04:27:21.461Z,101451.00
2023-10-13T04:29:56.798Z,101450.00
2023-10-13T04:32:33.197Z,101443.00
2023-10-13T04:35:14.416Z,101444.00
2023-10-13T04:38:03.923Z,101448.00
2023-10-13T04:40:44.620Z,101454.00
2023-10-13T04:43:35.097Z,101446.00
2023-10-13T04:46:24.302Z,101454.00
2023-10-13T04:48:58.315Z,101463.00
2023-10-13T04:51:48.889Z,101457.00
2023-10-13T04:54:23.062Z,101453.00
2023-10-13T04:57:13.680Z,101457.00
2023-10-13T04:59:52.018Z,101454.00
2023-10-13T05:02:41.525Z,101451.00
2023-10-13T05:05:21.309Z,101451.00
2023-10-13T05:08:11.707Z,101452.00
2023-10-13T05:11:03.245Z,101457.00
2023-10-13T05:13:54.034Z,101457.00
2023-10-13T05:16:44.605Z,101454.00
2023-10-13T05:19:35.151Z,101455.00
2023-10-13T05:22:25.456Z,101463.00
2023-10-13T05:25:15.841Z,101449.00
2023-10-13T05:28:07.492Z,101460.00
2023-10-13T05:30:57.939Z,101460.00
2023-10-13T05:33:48.758Z,101473.00
2023-10-13T05:36:39.483Z,101465.00
2023-10-13T05:39:29.892Z,101462.00
2023-10-13T05:42:30.320Z,101463.00
2023-10-13T05:45:23.373Z,101468.00
2023-10-13T05:47:58.243Z,101470.00
2023-10-13T05:50:34.057Z,101482.00
2023-10-13T05:53:14.743Z,101476.00
2023-10-13T05:56:05.222Z,101479.00
2023-10-13T05:58:57.768Z,101477.00
2023-10-13T06:01:47.801Z,101477.00
2023-10-13T06:04:38.367Z,101478.00
2023-10-13T06:07:28.579Z,101475.00
2023-10-13T06:10:19.168Z,101482.00
2023-10-13T06:13:11.480Z,101483.00
2023-10-13T06:16:01.957Z,101484.00
2023-10-13T06:18:53.145Z,101485.00
2023-10-13T06:21:44.089Z,101496.00
2023-10-13T06:24:36.336Z,101496.00
2023-10-13T06:27:30.785Z,101506.00
2023-10-13T06:31:01.823Z,101505.00
2023-10-13T06:36:35.883Z,101506.00
2023-10-13T06:39:19.981Z,101510.00
2023-10-13T06:41:54.238Z,101509.00
2023-10-13T06:44:27.714Z,101504.00
2023-10-13T06:47:00.753Z,101525.00
2023-10-13T06:49:39.180Z,101519.00
2023-10-13T06:52:12.264Z,101529.00
2023-10-13T06:54:49.641Z,101529.00
2023-10-13T06:57:28.087Z,101527.00
2023-10-13T07:00:19.204Z,101528.00
2023-10-13T07:03:26.588Z,101521.00
2023-10-13T07:09:51.897Z,101529.00
2023-10-13T07:15:52.023Z,101548.00
2023-10-13T07:18:26.273Z,101559.00
2023-10-13T07:30:29.345Z,101563.00
2023-10-13T07:33:07.086Z,101567.00
2023-10-13T07:36:30.964Z,101561.00
2023-10-13T07:39:23.279Z,101574.00
2023-10-13T07:48:41.160Z,101575.00
2023-10-13T07:51:15.985Z,101571.00
2023-10-13T07:58:42.687Z,101589.00
2023-10-13T08:03:52.110Z,101586.00
2023-10-13T08:06:26.593Z,101589.00
2023-10-13T08:09:00.825Z,101588.00
2023-10-13T08:11:41.161Z,101575.00
2023-10-13T08:14:26.730Z,101579.00
2023-10-13T08:16:54.414Z,101579.00
2023-10-13T08:19:33.012Z,101590.00
2023-10-13T08:22:23.107Z,101590.00
2023-10-13T08:25:06.490Z,101592.00
2023-10-13T08:35:09.504Z,101595.00
2023-10-13T08:38:33.448Z,101593.00
2023-10-13T08:40:36.397Z,101594.00
2023-10-13T08:47:04.155Z,101591.00
2023-10-13T08:49:31.148Z,101589.00
2023-10-13T08:52:14.675Z,101586.00
2023-10-13T08:55:04.272Z,101592.00
2023-10-13T08:57:45.221Z,101592.00
2023-10-13T09:00:34.542Z,101592.00
2023-10-13T09:03:42.588Z,101582.00
2023-10-13T09:06:17.989Z,101583.00
2023-10-13T09:09:20.124Z,101590.00
2023-10-13T09:11:55.900Z,101597.00
2023-10-13T09:18:22.157Z,101597.00
2023-10-13T09:21:16.228Z,101594.00
2023-10-13T09:23:46.351Z,101599.00
2023-10-13T09:26:26.300Z,101589.00
2023-10-13T09:29:25.228Z,101598.00
2023-10-13T09:35:42.018Z,101612.00
2023-10-13T09:38:07.436Z,101604.00
2023-10-13T09:40:42.211Z,101604.00
2023-10-13T09:43:20.345Z,101594.00
2023-10-13T09:46:12.918Z,101601.00
2023-10-13T09:48:48.894Z,101596.00
2023-10-13T09:51:29.455Z,101598.00
2023-10-13T09:54:30.698Z,101601.00
2023-10-13T09:56:50.055Z,101593.00
2023-10-13T09:59:44.986Z,101591.00
2023-10-13T10:05:39.117Z,101578.00
2023-10-13T10:08:20.128Z,101574.00
2023-10-13T10:11:35.508Z,101575.00
2023-10-13T10:14:24.645Z,101575.00
2023-10-13T10:23:37.982Z,101575.00
2023-10-13T10:27:39.343Z,101574.00
2023-10-13T10:33:14.289Z,101572.00
2023-10-13T10:39:39.131Z,101571.00
2023-10-13T10:45:21.135Z,101564.00
2023-10-13T10:48:29.176Z,101567.00
2023-10-13T10:51:19.079Z,101565.00
2023-10-13T10:54:09.491Z,101564.00
2023-10-13T11:04:05.083Z,101569.00
2023-10-13T11:16:44.151Z,101553.00
2023-10-13T11:39:43.454Z,101548.00
2023-10-13T11:50:47.184Z,101541.00
2023-10-13T12:00:31.611Z,101529.00
2023-10-13T12:16:25.884Z,101517.00
2023-10-13T12:19:33.326Z,101519.00
2023-10-13T12:32:18.822Z,101513.00
2023-10-13T12:34:53.112Z,101516.00
2023-10-13T12:37:44.676Z,101512.00
2023-10-13T12:47:17.401Z,101506.00
2023-10-13T13:00:02.185Z,101499.00
2023-10-13T13:09:14.629Z,101496.00
2023-10-13T13:11:48.913Z,101482.00
2023-10-13T13:14:23.162Z,101494.00
2023-10-13T13:17:00.898Z,101482.00
2023-10-13T13:22:19.213Z,101473.00
2023-10-13T13:24:53.516Z,101469.00
2023-10-13T13:30:53.183Z,101458.00
2023-10-13T14:03:18.245Z,101441.00
2023-10-13T14:30:37.859Z,101460.00
2023-10-13T14:41:05.491Z,101435.00
2023-10-13T14:55:56.678Z,101450.00
2023-10-13T15:02:14.427Z,101454.00
2023-10-13T15:04:31.915Z,101453.00
2023-10-13T15:07:15.544Z,101451.00
2023-10-13T15:10:17.133Z,101458.00
2023-10-13T15:21:48.218Z,101442.00
2023-10-13T15:27:14.867Z,101435.00
2023-10-13T15:29:53.945Z,101434.00
2023-10-13T15:32:42.961Z,101422.00
2023-10-13T15:35:19.136Z,101427.00
2023-10-13T15:44:08.605Z,101428.00
2023-10-13T15:49:57.653Z,101422.00
2023-10-13T15:52:23.900Z,101428.00
2023-10-13T15:54:58.275Z,101422.00
2023-10-13T15:57:45.192Z,101412.00
2023-10-13T16:00:28.826Z,101406.00
2023-10-13T16:03:23.756Z,101399.00
2023-10-13T16:06:00.416Z,101401.00
2023-10-13T16:08:41.169Z,101396.00
2023-10-13T16:17:46.530Z,101393.00
2023-10-13T16:21:06.910Z,101394.00
2023-10-13T16:36:21.462Z,101394.00
2023-10-13T16:39:08.940Z,101393.00
2023-10-13T16:42:37.751Z,101396.00
2023-10-13T16:45:48.100Z,101394.00
2023-10-13T16:48:30.606Z,101389.00
2023-10-13T16:51:05.088Z,101396.00
2023-10-13T16:53:39.120Z,101396.00
2023-10-13T16:56:36.263Z,101401.00
2023-10-13T16:58:55.862Z,101395.00
2023-10-13T17:08:14.183Z,101411.00
2023-10-13T17:11:36.810Z,101402.00
2023-10-13T17:18:01.739Z,101407.00
2023-10-13T17:29:14.024Z,101411.00
2023-10-13T17:31:58.506Z,101414.00
2023-10-13T17:35:38.324Z,101418.00
2023-10-13T17:40:56.339Z,101426.00
2023-10-13T17:43:38.814Z,101431.00
2023-10-13T17:46:16.858Z,101434.00
2023-10-13T17:48:53.417Z,101423.00
2023-10-13T17:51:46.784Z,101425.00
2023-10-13T17:54:46.707Z,101419.00
2023-10-13T17:57:35.407Z,101425.00
2023-10-13T18:03:50.626Z,101430.00
2023-10-13T18:06:32.550Z,101425.00
2023-10-13T18:12:26.183Z,101432.00
2023-10-13T18:15:03.970Z,101428.00
2023-10-13T18:17:43.277Z,101424.00
2023-10-13T18:20:24.231Z,101431.00
2023-10-13T18:22:57.237Z,101426.00
2023-10-13T18:25:31.330Z,101428.00
2023-10-13T18:28:05.514Z,101432.00
2023-10-13T18:30:38.881Z,101434.00
2023-10-13T18:33:13.206Z,101433.00
2023-10-13T18:35:47.519Z,101430.00
2023-10-13T18:38:21.102Z,101428.00
2023-10-13T18:41:00.694Z,101428.00
2023-10-13T18:43:33.998Z,101432.00
2023-10-13T18:46:08.617Z,101438.00
2023-10-13T18:48:47.300Z,101439.00
2023-10-13T18:51:24.155Z,101443.00
2023-10-13T18:53:58.583Z,101442.00
2023-10-13T18:56:31.902Z,101436.00
2023-10-13T18:59:09.082Z,101437.00
2023-10-13T19:01:41.972Z,101435.00
2023-10-13T19:04:18.618Z,101433.00
2023-10-13T19:06:51.930Z,101438.00
2023-10-13T19:09:31.129Z,101434.00
2023-10-13T19:12:04.415Z,101442.00
2023-10-13T19:14:38.345Z,101434.00
2023-10-13T19:17:11.313Z,101436.00
2023-10-13T19:19:50.720Z,101433.00
2023-10-13T19:22:23.718Z,101435.00
2023-10-13T19:24:57.645Z,101438.00
2023-10-13T19:27:30.642Z,101435.00
2023-10-13T19:30:08.934Z,101434.00
2023-10-13T19:32:42.152Z,101435.00
2023-10-13T19:35:15.587Z,101433.00
2023-10-13T19:37:48.516Z,101439.00
2023-10-13T19:40:25.070Z,101448.00
2023-10-13T19:42:57.742Z,101443.00
2023-10-13T19:45:30.924Z,101444.00
2023-10-13T19:48:04.171Z,101448.00
2023-10-13T19:50:53.925Z,101450.00
2023-10-13T19:53:29.014Z,101442.00
2023-10-13T19:56:02.288Z,101451.00
2023-10-13T19:58:35.254Z,101449.00
2023-10-13T20:01:16.283Z,101447.00
2023-10-13T20:03:52.193Z,101449.00
2023-10-13T20:06:32.453Z,101454.00
2023-10-13T20:09:12.247Z,101449.00
2023-10-13T20:11:46.463Z,101453.00
2023-10-13T20:14:22.552Z,101451.00
2023-10-13T20:16:56.916Z,101444.00
2023-10-13T20:19:30.150Z,101455.00
2023-10-13T20:22:04.642Z,101463.00
2023-10-13T20:24:38.601Z,101460.00
2023-10-13T20:27:16.356Z,101455.00
2023-10-13T20:29:49.679Z,101469.00
2023-10-13T20:32:22.796Z,101452.00
2023-10-13T20:34:57.022Z,101458.00
2023-10-13T20:37:31.105Z,101451.00
2023-10-13T20:40:06.517Z,101467.00
2023-10-13T20:42:39.406Z,101461.00
2023-10-13T20:45:13.073Z,101468.00
2023-10-13T20:47:45.940Z,101464.00
2023-10-13T20:50:18.887Z,101465.00
2023-10-13T20:52:54.802Z,101462.00
2023-10-13T20:55:27.396Z,101457.00
2023-10-13T20:58:00.545Z,101460.00
2023-10-13T21:00:33.735Z,101460.00
2023-10-13T21:03:09.819Z,101458.00
2023-10-13T21:05:44.449Z,101449.00
2023-10-13T21:08:17.584Z,101455.00
2023-10-13T21:10:51.694Z,101463.00
2023-10-13T21:13:24.755Z,101455.00
2023-10-13T21:15:57.882Z,101456.00
2023-10-13T21:18:34.326Z,101456.00
2023-10-13T21:21:18.947Z,101457.00
2023-10-13T21:23:58.528Z,101469.00
2023-10-13T21:26:32.190Z,101462.00
2023-10-13T21:29:06.098Z,101448.00
2023-10-13T21:31:43.118Z,101456.00
2023-10-13T21:34:16.962Z,101447.00
2023-10-13T21:36:50.099Z,101454.00
2023-10-13T21:39:33.874Z,101447.00
2023-10-13T21:41:59.603Z,101441.00
2023-10-13T21:44:34.522Z,101443.00
2023-10-13T21:47:07.507Z,101430.00
2023-10-13T21:49:40.623Z,101431.00
2023-10-13T21:52:14.697Z,101433.00
2023-10-13T21:54:48.149Z,101433.00
2023-10-13T21:57:21.235Z,101427.00
2023-10-13T21:59:54.194Z,101425.00
2023-10-13T22:02:27.227Z,101426.00
2023-10-13T22:05:01.564Z,101421.00
2023-10-13T22:07:38.928Z,101408.00
2023-10-13T22:10:13.959Z,101417.00
2023-10-13T22:12:52.705Z,101410.00
2023-10-13T22:15:25.521Z,101407.00
2023-10-13T22:17:58.460Z,101404.00
2023-10-13T22:20:31.639Z,101396.00
2023-10-13T22:23:04.701Z,101379.00
2023-10-13T22:25:37.685Z,101383.00
2023-10-13T22:28:11.299Z,101383.00
2023-10-13T22:30:44.611Z,101382.00
2023-10-13T22:33:18.626Z,101391.00
2023-10-13T22:35:53.118Z,101402.00
2023-10-13T22:38:26.104Z,101404.00
2023-10-13T22:41:03.202Z,101392.00
2023-10-13T22:43:40.174Z,101384.00
2023-10-13T22:46:13.415Z,101386.00
2023-10-13T22:48:47.053Z,101387.00
2023-10-13T22:51:20.393Z,101376.00
2023-10-13T22:53:53.663Z,101382.00
2023-10-13T22:56:26.794Z,101387.00
2023-10-13T22:58:59.721Z,101379.00
2023-10-13T23:01:33.343Z,101377.00
2023-10-13T23:04:06.678Z,101396.00
2023-10-13T23:06:41.598Z,101387.00
2023-10-13T23:09:15.854Z,101384.00
2023-10-13T23:11:50.300Z,101383.00
2023-10-13T23:14:24.602Z,101372.00
2023-10-13T23:16:57.755Z,101373.00
2023-10-13T23:19:30.943Z,101370.00
2023-10-13T23:22:04.180Z,101363.00
2023-10-13T23:24:38.600Z,101358.00
2023-10-13T23:27:12.510Z,101350.00
2023-10-13T23:29:45.457Z,101358.00
2023-10-13T23:32:19.340Z,101360.00
2023-10-13T23:34:52.377Z,101364.00
2023-10-13T23:37:27.087Z,101345.00
2023-10-13T23:40:01.445Z,101355.00
2023-10-13T23:42:35.514Z,101345.00
2023-10-13T23:45:13.008Z,101344.00
2023-10-13T23:47:47.258Z,101346.00
2023-10-13T23:50:21.555Z,101341.00
2023-10-13T23:52:56.211Z,101336.00
2023-10-13T23:55:30.558Z,101347.00
2023-10-13T23:58:04.713Z,101351.00
